sensor_id;sensor_type;location;lat;lon;timestamp;P1;durP1;ratioP1;P2;durP2;ratioP2
15806;SDS011;8005;51.368;6.140;2023-04-29T00:01:16;79.43;;;42.97;;
15806;SDS011;8005;51.368;6.140;2023-04-29T00:02:48;84.20;;;43.47;;
15806;SDS011;8005;51.368;6.140;2023-04-29T00:04:20;84.63;;;44.60;;
15806;SDS011;8005;51.368;6.140;2023-04-29T00:05:52;80.63;;;44.35;;
15806;SDS011;8005;51.368;6.140;2023-04-29T00:07:25;83.78;;;43.45;;
15806;SDS011;8005;51.368;6.140;2023-04-29T00:08:57;91.35;;;45.00;;
15806;SDS011;8005;51.368;6.140;2023-04-29T00:10:29;81.93;;;42.13;;
15806;SDS011;8005;51.368;6.140;2023-04-29T00:12:01;92.15;;;45.35;;
15806;SDS011;8005;51.368;6.140;2023-04-29T00:13:33;92.53;;;44.27;;
15806;SDS011;8005;51.368;6.140;2023-04-29T00:15:05;89.85;;;46.00;;
15806;SDS011;8005;51.368;6.140;2023-04-29T00:16:37;88.50;;;45.85;;
15806;SDS011;8005;51.368;6.140;2023-04-29T00:18:09;86.70;;;44.78;;
15806;SDS011;8005;51.368;6.140;2023-04-29T00:19:41;89.68;;;43.60;;
15806;SDS011;8005;51.368;6.140;2023-04-29T00:21:14;85.85;;;45.75;;
15806;SDS011;8005;51.368;6.140;2023-04-29T00:22:46;86.35;;;45.17;;
15806;SDS011;8005;51.368;6.140;2023-04-29T00:24:18;84.20;;;43.27;;
15806;SDS011;8005;51.368;6.140;2023-04-29T00:25:50;95.07;;;47.33;;
15806;SDS011;8005;51.368;6.140;2023-04-29T00:27:24;87.45;;;44.72;;
15806;SDS011;8005;51.368;6.140;2023-04-29T00:28:55;101.90;;;44.43;;
15806;SDS011;8005;51.368;6.140;2023-04-29T00:30:27;88.40;;;45.25;;
15806;SDS011;8005;51.368;6.140;2023-04-29T00:31:59;90.60;;;44.33;;
15806;SDS011;8005;51.368;6.140;2023-04-29T00:33:31;82.90;;;41.87;;
15806;SDS011;8005;51.368;6.140;2023-04-29T00:35:03;86.72;;;41.92;;
15806;SDS011;8005;51.368;6.140;2023-04-29T00:36:36;90.35;;;42.95;;
15806;SDS011;8005;51.368;6.140;2023-04-29T00:38:08;89.60;;;44.58;;
15806;SDS011;8005;51.368;6.140;2023-04-29T00:39:39;90.27;;;42.63;;
15806;SDS011;8005;51.368;6.140;2023-04-29T00:41:12;96.55;;;44.95;;
15806;SDS011;8005;51.368;6.140;2023-04-29T00:42:44;100.30;;;45.25;;
15806;SDS011;8005;51.368;6.140;2023-04-29T00:44:16;102.17;;;47.93;;
15806;SDS011;8005;51.368;6.140;2023-04-29T00:45:48;100.73;;;46.87;;
15806;SDS011;8005;51.368;6.140;2023-04-29T00:47:21;103.05;;;45.83;;
15806;SDS011;8005;51.368;6.140;2023-04-29T00:48:53;102.40;;;46.17;;
15806;SDS011;8005;51.368;6.140;2023-04-29T00:50:25;96.05;;;42.25;;
15806;SDS011;8005;51.368;6.140;2023-04-29T00:51:58;93.40;;;43.22;;
15806;SDS011;8005;51.368;6.140;2023-04-29T00:53:31;88.05;;;41.38;;
15806;SDS011;8005;51.368;6.140;2023-04-29T00:55:04;87.30;;;40.10;;
15806;SDS011;8005;51.368;6.140;2023-04-29T00:56:37;90.22;;;40.67;;
15806;SDS011;8005;51.368;6.140;2023-04-29T00:58:12;86.32;;;38.78;;
15806;SDS011;8005;51.368;6.140;2023-04-29T00:59:44;84.17;;;38.83;;
15806;SDS011;8005;51.368;6.140;2023-04-29T01:01:17;81.38;;;38.42;;
15806;SDS011;8005;51.368;6.140;2023-04-29T01:02:49;85.78;;;38.75;;
15806;SDS011;8005;51.368;6.140;2023-04-29T01:04:21;81.25;;;39.38;;
15806;SDS011;8005;51.368;6.140;2023-04-29T01:05:56;82.47;;;40.17;;
15806;SDS011;8005;51.368;6.140;2023-04-29T01:11:06;93.38;;;41.65;;
15806;SDS011;8005;51.368;6.140;2023-04-29T01:12:44;94.13;;;42.00;;
15806;SDS011;8005;51.368;6.140;2023-04-29T01:14:19;87.82;;;40.30;;
15806;SDS011;8005;51.368;6.140;2023-04-29T01:15:59;94.00;;;41.05;;
15806;SDS011;8005;51.368;6.140;2023-04-29T01:17:35;93.50;;;41.25;;
15806;SDS011;8005;51.368;6.140;2023-04-29T01:19:15;94.88;;;41.65;;
15806;SDS011;8005;51.368;6.140;2023-04-29T01:21:09;86.18;;;38.85;;
15806;SDS011;8005;51.368;6.140;2023-04-29T01:22:40;81.95;;;37.17;;
15806;SDS011;8005;51.368;6.140;2023-04-29T01:24:14;81.85;;;37.78;;
15806;SDS011;8005;51.368;6.140;2023-04-29T01:25:49;70.68;;;35.88;;
15806;SDS011;8005;51.368;6.140;2023-04-29T01:27:47;72.50;;;33.95;;
15806;SDS011;8005;51.368;6.140;2023-04-29T01:31:31;69.18;;;31.92;;
15806;SDS011;8005;51.368;6.140;2023-04-29T01:33:13;72.63;;;32.15;;
15806;SDS011;8005;51.368;6.140;2023-04-29T01:34:54;69.03;;;32.30;;
15806;SDS011;8005;51.368;6.140;2023-04-29T01:42:06;68.97;;;31.85;;
15806;SDS011;8005;51.368;6.140;2023-04-29T01:43:42;69.63;;;33.08;;
15806;SDS011;8005;51.368;6.140;2023-04-29T01:45:24;65.28;;;31.42;;
15806;SDS011;8005;51.368;6.140;2023-04-29T01:46:57;68.55;;;32.55;;
15806;SDS011;8005;51.368;6.140;2023-04-29T01:48:35;67.72;;;33.20;;
15806;SDS011;8005;51.368;6.140;2023-04-29T01:50:08;71.20;;;33.75;;
15806;SDS011;8005;51.368;6.140;2023-04-29T01:51:41;66.65;;;33.22;;
15806;SDS011;8005;51.368;6.140;2023-04-29T01:53:13;74.27;;;34.63;;
15806;SDS011;8005;51.368;6.140;2023-04-29T01:54:46;69.63;;;32.83;;
15806;SDS011;8005;51.368;6.140;2023-04-29T01:56:18;70.10;;;34.03;;
15806;SDS011;8005;51.368;6.140;2023-04-29T01:58:04;72.25;;;34.35;;
15806;SDS011;8005;51.368;6.140;2023-04-29T01:59:49;66.47;;;32.45;;
15806;SDS011;8005;51.368;6.140;2023-04-29T02:01:40;69.18;;;34.13;;
15806;SDS011;8005;51.368;6.140;2023-04-29T02:03:12;60.85;;;32.25;;
15806;SDS011;8005;51.368;6.140;2023-04-29T02:04:48;65.88;;;32.22;;
15806;SDS011;8005;51.368;6.140;2023-04-29T02:06:21;69.90;;;32.70;;
15806;SDS011;8005;51.368;6.140;2023-04-29T02:07:58;60.90;;;31.27;;
15806;SDS011;8005;51.368;6.140;2023-04-29T02:09:31;63.20;;;31.08;;
15806;SDS011;8005;51.368;6.140;2023-04-29T02:11:10;61.92;;;29.48;;
15806;SDS011;8005;51.368;6.140;2023-04-29T02:12:44;69.65;;;31.23;;
15806;SDS011;8005;51.368;6.140;2023-04-29T02:14:17;66.57;;;31.58;;
15806;SDS011;8005;51.368;6.140;2023-04-29T02:15:49;69.05;;;31.75;;
15806;SDS011;8005;51.368;6.140;2023-04-29T02:17:21;70.07;;;32.78;;
15806;SDS011;8005;51.368;6.140;2023-04-29T02:18:53;69.85;;;33.40;;
15806;SDS011;8005;51.368;6.140;2023-04-29T02:20:25;67.43;;;32.35;;
15806;SDS011;8005;51.368;6.140;2023-04-29T02:21:57;70.65;;;33.55;;
15806;SDS011;8005;51.368;6.140;2023-04-29T02:23:29;67.63;;;33.45;;
15806;SDS011;8005;51.368;6.140;2023-04-29T02:25:01;67.38;;;34.50;;
15806;SDS011;8005;51.368;6.140;2023-04-29T02:26:35;72.68;;;35.40;;
15806;SDS011;8005;51.368;6.140;2023-04-29T02:28:08;67.75;;;33.13;;
15806;SDS011;8005;51.368;6.140;2023-04-29T02:29:43;68.63;;;34.22;;
15806;SDS011;8005;51.368;6.140;2023-04-29T02:31:15;68.13;;;33.80;;
15806;SDS011;8005;51.368;6.140;2023-04-29T02:32:51;66.75;;;32.58;;
15806;SDS011;8005;51.368;6.140;2023-04-29T02:34:23;62.42;;;31.50;;
15806;SDS011;8005;51.368;6.140;2023-04-29T02:35:57;70.60;;;33.03;;
15806;SDS011;8005;51.368;6.140;2023-04-29T02:37:30;66.45;;;31.27;;
15806;SDS011;8005;51.368;6.140;2023-04-29T02:39:02;66.22;;;31.83;;
15806;SDS011;8005;51.368;6.140;2023-04-29T02:40:40;67.60;;;33.35;;
15806;SDS011;8005;51.368;6.140;2023-04-29T02:42:12;71.15;;;32.58;;
15806;SDS011;8005;51.368;6.140;2023-04-29T02:43:44;65.47;;;32.50;;
15806;SDS011;8005;51.368;6.140;2023-04-29T02:45:16;70.40;;;33.60;;
15806;SDS011;8005;51.368;6.140;2023-04-29T02:46:48;66.60;;;30.90;;
15806;SDS011;8005;51.368;6.140;2023-04-29T02:48:20;65.80;;;32.05;;
15806;SDS011;8005;51.368;6.140;2023-04-29T02:49:52;69.32;;;33.92;;
15806;SDS011;8005;51.368;6.140;2023-04-29T02:51:24;64.18;;;33.38;;
15806;SDS011;8005;51.368;6.140;2023-04-29T02:52:57;70.28;;;33.03;;
15806;SDS011;8005;51.368;6.140;2023-04-29T02:54:29;74.05;;;35.42;;
15806;SDS011;8005;51.368;6.140;2023-04-29T02:56:02;71.15;;;33.78;;
15806;SDS011;8005;51.368;6.140;2023-04-29T02:57:34;70.55;;;35.67;;
15806;SDS011;8005;51.368;6.140;2023-04-29T02:59:06;74.37;;;36.00;;
15806;SDS011;8005;51.368;6.140;2023-04-29T03:00:39;69.90;;;34.43;;
15806;SDS011;8005;51.368;6.140;2023-04-29T03:02:11;74.50;;;37.13;;
15806;SDS011;8005;51.368;6.140;2023-04-29T03:03:44;70.88;;;34.70;;
15806;SDS011;8005;51.368;6.140;2023-04-29T03:05:17;78.85;;;38.42;;
15806;SDS011;8005;51.368;6.140;2023-04-29T03:06:49;69.70;;;34.35;;
15806;SDS011;8005;51.368;6.140;2023-04-29T03:08:21;70.60;;;34.30;;
15806;SDS011;8005;51.368;6.140;2023-04-29T03:09:53;70.72;;;33.83;;
15806;SDS011;8005;51.368;6.140;2023-04-29T03:11:26;67.75;;;33.85;;
15806;SDS011;8005;51.368;6.140;2023-04-29T03:12:58;73.45;;;35.38;;
15806;SDS011;8005;51.368;6.140;2023-04-29T03:14:30;70.67;;;35.00;;
15806;SDS011;8005;51.368;6.140;2023-04-29T03:16:02;70.13;;;35.28;;
15806;SDS011;8005;51.368;6.140;2023-04-29T03:17:34;71.80;;;33.92;;
15806;SDS011;8005;51.368;6.140;2023-04-29T03:19:07;72.28;;;34.25;;
15806;SDS011;8005;51.368;6.140;2023-04-29T03:20:39;74.95;;;34.92;;
15806;SDS011;8005;51.368;6.140;2023-04-29T03:22:11;70.95;;;34.22;;
15806;SDS011;8005;51.368;6.140;2023-04-29T03:23:46;78.38;;;36.67;;
15806;SDS011;8005;51.368;6.140;2023-04-29T03:25:26;69.32;;;33.95;;
15806;SDS011;8005;51.368;6.140;2023-04-29T03:26:59;71.82;;;34.60;;
15806;SDS011;8005;51.368;6.140;2023-04-29T03:28:31;72.65;;;34.03;;
15806;SDS011;8005;51.368;6.140;2023-04-29T03:30:04;74.55;;;34.38;;
15806;SDS011;8005;51.368;6.140;2023-04-29T03:31:45;68.90;;;34.40;;
15806;SDS011;8005;51.368;6.140;2023-04-29T03:33:18;76.07;;;33.90;;
15806;SDS011;8005;51.368;6.140;2023-04-29T03:34:50;75.60;;;34.90;;
15806;SDS011;8005;51.368;6.140;2023-04-29T03:36:48;66.07;;;32.53;;
15806;SDS011;8005;51.368;6.140;2023-04-29T03:38:22;68.38;;;33.00;;
15806;SDS011;8005;51.368;6.140;2023-04-29T03:39:57;72.13;;;34.13;;
15806;SDS011;8005;51.368;6.140;2023-04-29T03:41:29;70.70;;;33.93;;
15806;SDS011;8005;51.368;6.140;2023-04-29T03:43:01;69.53;;;33.67;;
15806;SDS011;8005;51.368;6.140;2023-04-29T03:44:34;69.45;;;33.60;;
15806;SDS011;8005;51.368;6.140;2023-04-29T03:46:06;68.75;;;32.75;;
15806;SDS011;8005;51.368;6.140;2023-04-29T03:47:38;69.70;;;32.57;;
15806;SDS011;8005;51.368;6.140;2023-04-29T03:49:11;72.57;;;34.40;;
15806;SDS011;8005;51.368;6.140;2023-04-29T03:50:43;67.57;;;32.30;;
15806;SDS011;8005;51.368;6.140;2023-04-29T03:52:15;61.55;;;30.65;;
15806;SDS011;8005;51.368;6.140;2023-04-29T03:53:48;62.95;;;30.25;;
15806;SDS011;8005;51.368;6.140;2023-04-29T03:55:20;70.13;;;31.65;;
15806;SDS011;8005;51.368;6.140;2023-04-29T03:56:52;60.28;;;31.13;;
15806;SDS011;8005;51.368;6.140;2023-04-29T03:58:27;64.93;;;30.58;;
15806;SDS011;8005;51.368;6.140;2023-04-29T03:59:59;67.45;;;30.70;;
15806;SDS011;8005;51.368;6.140;2023-04-29T04:01:31;63.03;;;29.13;;
15806;SDS011;8005;51.368;6.140;2023-04-29T04:03:03;66.80;;;30.00;;
15806;SDS011;8005;51.368;6.140;2023-04-29T04:04:38;60.83;;;30.77;;
15806;SDS011;8005;51.368;6.140;2023-04-29T04:06:12;62.58;;;29.88;;
15806;SDS011;8005;51.368;6.140;2023-04-29T04:07:44;61.78;;;31.10;;
15806;SDS011;8005;51.368;6.140;2023-04-29T04:09:34;67.20;;;30.30;;
15806;SDS011;8005;51.368;6.140;2023-04-29T04:11:07;57.17;;;28.08;;
15806;SDS011;8005;51.368;6.140;2023-04-29T04:12:45;68.07;;;31.67;;
15806;SDS011;8005;51.368;6.140;2023-04-29T04:14:20;61.38;;;29.20;;
15806;SDS011;8005;51.368;6.140;2023-04-29T04:15:53;55.05;;;28.10;;
15806;SDS011;8005;51.368;6.140;2023-04-29T04:17:25;58.17;;;28.98;;
15806;SDS011;8005;51.368;6.140;2023-04-29T04:18:57;59.53;;;29.85;;
15806;SDS011;8005;51.368;6.140;2023-04-29T04:20:30;56.97;;;29.45;;
15806;SDS011;8005;51.368;6.140;2023-04-29T04:22:02;62.42;;;30.20;;
15806;SDS011;8005;51.368;6.140;2023-04-29T04:25:08;59.42;;;28.77;;
15806;SDS011;8005;51.368;6.140;2023-04-29T04:26:40;66.47;;;30.30;;
15806;SDS011;8005;51.368;6.140;2023-04-29T04:28:29;52.75;;;27.13;;
15806;SDS011;8005;51.368;6.140;2023-04-29T04:30:06;58.25;;;27.63;;
15806;SDS011;8005;51.368;6.140;2023-04-29T04:31:39;57.83;;;28.02;;
15806;SDS011;8005;51.368;6.140;2023-04-29T04:33:12;55.90;;;28.02;;
15806;SDS011;8005;51.368;6.140;2023-04-29T04:34:46;51.35;;;26.73;;
15806;SDS011;8005;51.368;6.140;2023-04-29T04:36:19;56.05;;;26.60;;
15806;SDS011;8005;51.368;6.140;2023-04-29T04:37:51;57.17;;;28.42;;
15806;SDS011;8005;51.368;6.140;2023-04-29T04:39:23;54.60;;;25.55;;
15806;SDS011;8005;51.368;6.140;2023-04-29T04:40:57;48.63;;;23.15;;
15806;SDS011;8005;51.368;6.140;2023-04-29T04:42:36;46.65;;;24.42;;
15806;SDS011;8005;51.368;6.140;2023-04-29T04:44:11;51.08;;;25.95;;
15806;SDS011;8005;51.368;6.140;2023-04-29T04:46:13;51.45;;;24.83;;
15806;SDS011;8005;51.368;6.140;2023-04-29T04:47:56;51.72;;;25.77;;
15806;SDS011;8005;51.368;6.140;2023-04-29T04:49:31;53.00;;;25.90;;
15806;SDS011;8005;51.368;6.140;2023-04-29T04:51:09;52.03;;;25.58;;
15806;SDS011;8005;51.368;6.140;2023-04-29T04:52:41;49.05;;;24.38;;
15806;SDS011;8005;51.368;6.140;2023-04-29T04:54:40;45.22;;;23.55;;
15806;SDS011;8005;51.368;6.140;2023-04-29T04:56:19;55.75;;;25.83;;
15806;SDS011;8005;51.368;6.140;2023-04-29T04:57:53;49.33;;;24.15;;
15806;SDS011;8005;51.368;6.140;2023-04-29T04:59:25;51.73;;;24.97;;
15806;SDS011;8005;51.368;6.140;2023-04-29T05:00:57;46.88;;;24.55;;
15806;SDS011;8005;51.368;6.140;2023-04-29T05:02:32;48.42;;;23.33;;
15806;SDS011;8005;51.368;6.140;2023-04-29T05:04:05;45.28;;;22.80;;
15806;SDS011;8005;51.368;6.140;2023-04-29T05:05:37;47.72;;;23.85;;
15806;SDS011;8005;51.368;6.140;2023-04-29T05:07:09;49.72;;;23.67;;
15806;SDS011;8005;51.368;6.140;2023-04-29T05:09:02;51.03;;;24.77;;
15806;SDS011;8005;51.368;6.140;2023-04-29T05:10:37;44.55;;;23.38;;
15806;SDS011;8005;51.368;6.140;2023-04-29T05:12:10;47.28;;;22.88;;
15806;SDS011;8005;51.368;6.140;2023-04-29T05:13:43;49.05;;;24.20;;
15806;SDS011;8005;51.368;6.140;2023-04-29T05:15:15;50.92;;;23.55;;
15806;SDS011;8005;51.368;6.140;2023-04-29T05:16:52;48.88;;;23.73;;
15806;SDS011;8005;51.368;6.140;2023-04-29T05:18:24;42.40;;;23.15;;
15806;SDS011;8005;51.368;6.140;2023-04-29T05:19:56;46.08;;;22.73;;
15806;SDS011;8005;51.368;6.140;2023-04-29T05:21:28;44.65;;;23.92;;
15806;SDS011;8005;51.368;6.140;2023-04-29T05:23:01;42.70;;;21.35;;
15806;SDS011;8005;51.368;6.140;2023-04-29T05:24:39;43.60;;;22.52;;
15806;SDS011;8005;51.368;6.140;2023-04-29T05:26:11;44.30;;;20.75;;
15806;SDS011;8005;51.368;6.140;2023-04-29T05:27:43;42.00;;;21.85;;
15806;SDS011;8005;51.368;6.140;2023-04-29T05:29:19;44.45;;;22.15;;
15806;SDS011;8005;51.368;6.140;2023-04-29T05:30:56;41.47;;;20.52;;
15806;SDS011;8005;51.368;6.140;2023-04-29T05:32:28;40.67;;;20.45;;
15806;SDS011;8005;51.368;6.140;2023-04-29T05:34:00;42.28;;;21.52;;
15806;SDS011;8005;51.368;6.140;2023-04-29T05:35:32;39.60;;;21.17;;
15806;SDS011;8005;51.368;6.140;2023-04-29T05:37:04;37.60;;;19.50;;
15806;SDS011;8005;51.368;6.140;2023-04-29T05:38:43;39.63;;;20.92;;
15806;SDS011;8005;51.368;6.140;2023-04-29T05:41:47;50.20;;;22.20;;
15806;SDS011;8005;51.368;6.140;2023-04-29T05:43:31;44.05;;;20.77;;
15806;SDS011;8005;51.368;6.140;2023-04-29T05:45:03;44.50;;;21.65;;
15806;SDS011;8005;51.368;6.140;2023-04-29T05:46:36;44.67;;;21.83;;
15806;SDS011;8005;51.368;6.140;2023-04-29T05:48:08;41.22;;;20.67;;
15806;SDS011;8005;51.368;6.140;2023-04-29T05:49:40;44.20;;;21.67;;
15806;SDS011;8005;51.368;6.140;2023-04-29T05:51:12;46.78;;;22.25;;
15806;SDS011;8005;51.368;6.140;2023-04-29T05:52:45;44.33;;;21.92;;
15806;SDS011;8005;51.368;6.140;2023-04-29T05:54:17;43.38;;;21.80;;
15806;SDS011;8005;51.368;6.140;2023-04-29T05:55:49;41.75;;;20.20;;
15806;SDS011;8005;51.368;6.140;2023-04-29T05:57:23;42.05;;;21.27;;
15806;SDS011;8005;51.368;6.140;2023-04-29T05:58:57;47.60;;;22.63;;
15806;SDS011;8005;51.368;6.140;2023-04-29T06:00:29;47.73;;;23.40;;
15806;SDS011;8005;51.368;6.140;2023-04-29T06:02:12;43.13;;;22.75;;
15806;SDS011;8005;51.368;6.140;2023-04-29T06:03:46;38.75;;;22.00;;
15806;SDS011;8005;51.368;6.140;2023-04-29T06:05:30;45.55;;;23.15;;
15806;SDS011;8005;51.368;6.140;2023-04-29T06:07:36;46.25;;;22.42;;
15806;SDS011;8005;51.368;6.140;2023-04-29T06:09:23;41.80;;;21.85;;
15806;SDS011;8005;51.368;6.140;2023-04-29T06:11:04;43.13;;;24.20;;
15806;SDS011;8005;51.368;6.140;2023-04-29T06:12:36;43.08;;;21.88;;
15806;SDS011;8005;51.368;6.140;2023-04-29T06:14:09;44.65;;;23.95;;
15806;SDS011;8005;51.368;6.140;2023-04-29T06:15:41;45.28;;;23.25;;
15806;SDS011;8005;51.368;6.140;2023-04-29T06:17:13;44.42;;;21.77;;
15806;SDS011;8005;51.368;6.140;2023-04-29T06:18:45;41.10;;;21.58;;
15806;SDS011;8005;51.368;6.140;2023-04-29T06:20:18;40.28;;;22.00;;
15806;SDS011;8005;51.368;6.140;2023-04-29T06:21:50;46.47;;;23.75;;
15806;SDS011;8005;51.368;6.140;2023-04-29T06:23:23;46.85;;;23.33;;
15806;SDS011;8005;51.368;6.140;2023-04-29T06:24:55;46.28;;;24.63;;
15806;SDS011;8005;51.368;6.140;2023-04-29T06:26:41;47.35;;;24.15;;
15806;SDS011;8005;51.368;6.140;2023-04-29T06:29:46;46.17;;;23.50;;
15806;SDS011;8005;51.368;6.140;2023-04-29T06:31:18;46.13;;;24.27;;
15806;SDS011;8005;51.368;6.140;2023-04-29T06:32:53;52.38;;;24.77;;
15806;SDS011;8005;51.368;6.140;2023-04-29T06:34:25;46.78;;;24.90;;
15806;SDS011;8005;51.368;6.140;2023-04-29T06:36:32;46.45;;;24.63;;
15806;SDS011;8005;51.368;6.140;2023-04-29T06:38:23;54.13;;;24.83;;
15806;SDS011;8005;51.368;6.140;2023-04-29T06:40:05;44.17;;;24.27;;
15806;SDS011;8005;51.368;6.140;2023-04-29T06:42:01;48.45;;;25.20;;
15806;SDS011;8005;51.368;6.140;2023-04-29T06:44:14;48.10;;;25.83;;
15806;SDS011;8005;51.368;6.140;2023-04-29T06:46:10;49.35;;;24.77;;
15806;SDS011;8005;51.368;6.140;2023-04-29T06:47:48;50.53;;;26.13;;
15806;SDS011;8005;51.368;6.140;2023-04-29T06:49:32;51.63;;;25.90;;
15806;SDS011;8005;51.368;6.140;2023-04-29T06:51:04;51.33;;;25.33;;
15806;SDS011;8005;51.368;6.140;2023-04-29T06:52:39;49.30;;;25.90;;
15806;SDS011;8005;51.368;6.140;2023-04-29T06:54:13;49.90;;;24.33;;
15806;SDS011;8005;51.368;6.140;2023-04-29T06:55:45;53.90;;;25.80;;
15806;SDS011;8005;51.368;6.140;2023-04-29T06:57:17;57.97;;;28.63;;
15806;SDS011;8005;51.368;6.140;2023-04-29T06:58:49;46.08;;;24.05;;
15806;SDS011;8005;51.368;6.140;2023-04-29T07:00:22;47.20;;;24.38;;
15806;SDS011;8005;51.368;6.140;2023-04-29T07:01:53;42.83;;;23.80;;
15806;SDS011;8005;51.368;6.140;2023-04-29T07:03:26;47.08;;;25.10;;
15806;SDS011;8005;51.368;6.140;2023-04-29T07:05:00;45.67;;;24.98;;
15806;SDS011;8005;51.368;6.140;2023-04-29T07:06:32;50.70;;;24.70;;
15806;SDS011;8005;51.368;6.140;2023-04-29T07:08:04;50.03;;;25.13;;
15806;SDS011;8005;51.368;6.140;2023-04-29T07:09:36;47.40;;;24.83;;
15806;SDS011;8005;51.368;6.140;2023-04-29T07:11:08;49.88;;;24.38;;
15806;SDS011;8005;51.368;6.140;2023-04-29T07:14:25;42.53;;;23.77;;
15806;SDS011;8005;51.368;6.140;2023-04-29T07:15:57;50.30;;;25.23;;
15806;SDS011;8005;51.368;6.140;2023-04-29T07:17:29;48.63;;;24.90;;
15806;SDS011;8005;51.368;6.140;2023-04-29T07:20:35;49.05;;;23.90;;
15806;SDS011;8005;51.368;6.140;2023-04-29T07:22:08;41.25;;;23.38;;
15806;SDS011;8005;51.368;6.140;2023-04-29T07:23:40;38.40;;;21.70;;
15806;SDS011;8005;51.368;6.140;2023-04-29T07:25:12;31.45;;;16.33;;
15806;SDS011;8005;51.368;6.140;2023-04-29T07:26:45;41.50;;;20.55;;
15806;SDS011;8005;51.368;6.140;2023-04-29T07:28:19;36.08;;;20.83;;
15806;SDS011;8005;51.368;6.140;2023-04-29T07:29:51;37.08;;;20.63;;
15806;SDS011;8005;51.368;6.140;2023-04-29T07:31:23;40.45;;;22.27;;
15806;SDS011;8005;51.368;6.140;2023-04-29T07:32:55;41.40;;;23.30;;
15806;SDS011;8005;51.368;6.140;2023-04-29T07:34:27;43.00;;;22.17;;
15806;SDS011;8005;51.368;6.140;2023-04-29T07:36:00;39.90;;;22.60;;
15806;SDS011;8005;51.368;6.140;2023-04-29T07:37:32;38.08;;;22.77;;
15806;SDS011;8005;51.368;6.140;2023-04-29T07:39:04;39.13;;;22.70;;
15806;SDS011;8005;51.368;6.140;2023-04-29T07:40:36;42.38;;;22.15;;
15806;SDS011;8005;51.368;6.140;2023-04-29T07:42:08;40.47;;;21.03;;
15806;SDS011;8005;51.368;6.140;2023-04-29T07:43:40;38.33;;;21.40;;
15806;SDS011;8005;51.368;6.140;2023-04-29T07:45:13;38.72;;;21.27;;
15806;SDS011;8005;51.368;6.140;2023-04-29T07:46:45;38.35;;;20.63;;
15806;SDS011;8005;51.368;6.140;2023-04-29T07:48:18;34.90;;;20.38;;
15806;SDS011;8005;51.368;6.140;2023-04-29T07:49:51;36.58;;;20.35;;
15806;SDS011;8005;51.368;6.140;2023-04-29T07:51:23;38.53;;;22.00;;
15806;SDS011;8005;51.368;6.140;2023-04-29T07:52:55;33.63;;;20.57;;
15806;SDS011;8005;51.368;6.140;2023-04-29T07:54:28;41.42;;;22.05;;
15806;SDS011;8005;51.368;6.140;2023-04-29T07:56:03;32.53;;;20.23;;
15806;SDS011;8005;51.368;6.140;2023-04-29T07:57:37;36.90;;;19.73;;
15806;SDS011;8005;51.368;6.140;2023-04-29T07:59:09;35.17;;;20.42;;
15806;SDS011;8005;51.368;6.140;2023-04-29T08:00:41;35.40;;;20.85;;
15806;SDS011;8005;51.368;6.140;2023-04-29T08:02:13;35.00;;;20.60;;
15806;SDS011;8005;51.368;6.140;2023-04-29T08:03:47;29.38;;;18.95;;
15806;SDS011;8005;51.368;6.140;2023-04-29T08:05:22;30.65;;;19.88;;
15806;SDS011;8005;51.368;6.140;2023-04-29T08:06:55;32.70;;;19.35;;
15806;SDS011;8005;51.368;6.140;2023-04-29T08:08:27;33.58;;;18.17;;
15806;SDS011;8005;51.368;6.140;2023-04-29T08:09:59;28.15;;;16.75;;
15806;SDS011;8005;51.368;6.140;2023-04-29T08:11:32;28.65;;;18.25;;
15806;SDS011;8005;51.368;6.140;2023-04-29T08:13:04;30.10;;;17.13;;
15806;SDS011;8005;51.368;6.140;2023-04-29T08:14:36;28.90;;;17.08;;
15806;SDS011;8005;51.368;6.140;2023-04-29T08:16:08;26.67;;;15.50;;
15806;SDS011;8005;51.368;6.140;2023-04-29T08:17:40;26.42;;;16.48;;
15806;SDS011;8005;51.368;6.140;2023-04-29T08:19:12;24.27;;;16.67;;
15806;SDS011;8005;51.368;6.140;2023-04-29T08:20:45;26.77;;;15.90;;
15806;SDS011;8005;51.368;6.140;2023-04-29T08:22:18;27.70;;;17.02;;
15806;SDS011;8005;51.368;6.140;2023-04-29T08:23:50;33.65;;;19.48;;
15806;SDS011;8005;51.368;6.140;2023-04-29T08:25:24;27.27;;;17.08;;
15806;SDS011;8005;51.368;6.140;2023-04-29T08:26:57;29.77;;;17.90;;
15806;SDS011;8005;51.368;6.140;2023-04-29T08:28:29;35.30;;;18.77;;
15806;SDS011;8005;51.368;6.140;2023-04-29T08:30:02;32.22;;;18.80;;
15806;SDS011;8005;51.368;6.140;2023-04-29T08:31:34;30.05;;;17.63;;
15806;SDS011;8005;51.368;6.140;2023-04-29T08:33:06;31.45;;;19.15;;
15806;SDS011;8005;51.368;6.140;2023-04-29T08:34:40;37.67;;;19.17;;
15806;SDS011;8005;51.368;6.140;2023-04-29T08:36:12;32.78;;;19.17;;
15806;SDS011;8005;51.368;6.140;2023-04-29T08:37:44;30.90;;;17.80;;
15806;SDS011;8005;51.368;6.140;2023-04-29T08:39:16;33.00;;;18.88;;
15806;SDS011;8005;51.368;6.140;2023-04-29T08:40:48;32.42;;;19.42;;
15806;SDS011;8005;51.368;6.140;2023-04-29T08:42:29;32.33;;;19.48;;
15806;SDS011;8005;51.368;6.140;2023-04-29T08:44:11;34.45;;;21.08;;
15806;SDS011;8005;51.368;6.140;2023-04-29T08:45:43;33.28;;;19.67;;
15806;SDS011;8005;51.368;6.140;2023-04-29T08:47:16;31.30;;;19.70;;
15806;SDS011;8005;51.368;6.140;2023-04-29T08:48:48;29.58;;;19.75;;
15806;SDS011;8005;51.368;6.140;2023-04-29T08:50:20;28.35;;;19.10;;
15806;SDS011;8005;51.368;6.140;2023-04-29T08:51:53;31.02;;;20.02;;
15806;SDS011;8005;51.368;6.140;2023-04-29T08:53:25;33.92;;;19.27;;
15806;SDS011;8005;51.368;6.140;2023-04-29T08:54:58;31.30;;;19.58;;
15806;SDS011;8005;51.368;6.140;2023-04-29T08:56:30;32.08;;;20.40;;
15806;SDS011;8005;51.368;6.140;2023-04-29T08:58:02;38.60;;;22.80;;
15806;SDS011;8005;51.368;6.140;2023-04-29T08:59:34;35.78;;;20.23;;
15806;SDS011;8005;51.368;6.140;2023-04-29T09:01:07;33.30;;;20.17;;
15806;SDS011;8005;51.368;6.140;2023-04-29T09:02:44;32.72;;;19.52;;
15806;SDS011;8005;51.368;6.140;2023-04-29T09:04:27;33.15;;;18.92;;
15806;SDS011;8005;51.368;6.140;2023-04-29T09:06:02;30.58;;;19.17;;
15806;SDS011;8005;51.368;6.140;2023-04-29T09:07:38;32.55;;;19.80;;
15806;SDS011;8005;51.368;6.140;2023-04-29T09:09:12;37.83;;;19.92;;
15806;SDS011;8005;51.368;6.140;2023-04-29T09:10:45;38.33;;;20.95;;
15806;SDS011;8005;51.368;6.140;2023-04-29T09:13:49;33.88;;;20.27;;
15806;SDS011;8005;51.368;6.140;2023-04-29T09:15:21;31.98;;;20.95;;
15806;SDS011;8005;51.368;6.140;2023-04-29T09:16:56;32.90;;;20.30;;
15806;SDS011;8005;51.368;6.140;2023-04-29T09:18:47;32.80;;;21.48;;
15806;SDS011;8005;51.368;6.140;2023-04-29T09:21:53;33.33;;;20.27;;
15806;SDS011;8005;51.368;6.140;2023-04-29T09:23:35;30.30;;;20.25;;
15806;SDS011;8005;51.368;6.140;2023-04-29T09:25:12;27.77;;;18.63;;
15806;SDS011;8005;51.368;6.140;2023-04-29T09:26:44;29.25;;;19.05;;
15806;SDS011;8005;51.368;6.140;2023-04-29T09:28:16;34.72;;;20.95;;
15806;SDS011;8005;51.368;6.140;2023-04-29T09:30:00;32.65;;;21.10;;
15806;SDS011;8005;51.368;6.140;2023-04-29T09:31:32;36.50;;;19.00;;
15806;SDS011;8005;51.368;6.140;2023-04-29T09:33:06;37.22;;;20.60;;
15806;SDS011;8005;51.368;6.140;2023-04-29T09:34:39;30.67;;;18.20;;
15806;SDS011;8005;51.368;6.140;2023-04-29T09:37:43;27.95;;;17.05;;
15806;SDS011;8005;51.368;6.140;2023-04-29T09:39:18;27.17;;;18.33;;
15806;SDS011;8005;51.368;6.140;2023-04-29T09:40:52;28.45;;;18.80;;
15806;SDS011;8005;51.368;6.140;2023-04-29T09:42:30;26.67;;;18.20;;
15806;SDS011;8005;51.368;6.140;2023-04-29T09:44:12;30.95;;;19.38;;
15806;SDS011;8005;51.368;6.140;2023-04-29T09:45:45;29.27;;;18.47;;